Time;durP1;ratioP1;P1;durP2;ratioP2;P2;SDS_P1;SDS_P2;PMS_P1;PMS_P2;Temp;Humidity;BMP_temperature;BMP_pressure;BME280_temperature;BME280_humidity;BME280_pressure;Samples;Min_cycle;Max_cycle;Signal;HPM_P1;HPM_P2
2022/01/01 00:01:41;;;;;;;26.13;14.63;;;11.80;99.90;;;;;;4991006;28;20330;-75
2022/01/01 00:04:09;;;;;;;26.83;15.87;;;11.70;99.90;;;;;;4981210;28;20318;-76
2022/01/01 00:06:35;;;;;;;25.53;14.13;;;11.70;99.90;;;;;;4978154;28;20270;-81
2022/01/01 00:09:03;;;;;;;24.60;14.13;;;11.70;99.90;;;;;;4984034;28;20280;-77
2022/01/01 00:11:30;;;;;;;25.10;13.37;;;11.70;99.90;;;;;;4986250;28;20198;-76
2022/01/01 00:13:56;;;;;;;26.10;13.07;;;11.60;99.90;;;;;;4992678;28;20291;-73
2022/01/01 00:16:28;;;;;;;22.50;14.33;;;11.60;99.90;;;;;;4996261;28;22140;-78
2022/01/01 00:18:55;;;;;;;27.53;14.27;;;11.50;99.90;;;;;;4990818;28;20302;-72
2022/01/01 00:21:22;;;;;;;20.43;12.60;;;11.40;99.90;;;;;;4986761;28;20235;-71
2022/01/01 00:23:49;;;;;;;20.87;12.70;;;11.30;99.90;;;;;;4990855;28;20289;-72
2022/01/01 00:26:16;;;;;;;22.20;13.10;;;11.30;99.90;;;;;;4987134;28;20197;-72
2022/01/01 00:28:44;;;;;;;22.67;13.43;;;11.30;99.90;;;;;;4982185;28;20210;-74
2022/01/01 00:31:11;;;;;;;20.97;12.57;;;11.20;99.90;;;;;;5001042;28;20231;-78
2022/01/01 00:33:38;;;;;;;20.67;12.07;;;11.20;99.90;;;;;;4998193;28;20673;-80
2022/01/01 00:36:04;;;;;;;21.27;12.23;;;11.20;99.90;;;;;;4991601;28;20195;-76
2022/01/01 00:38:31;;;;;;;22.40;12.57;;;11.20;99.90;;;;;;4980665;28;20196;-77
2022/01/01 00:40:59;;;;;;;22.10;12.70;;;11.30;99.90;;;;;;4988573;28;20697;-72
2022/01/01 00:43:25;;;;;;;25.80;13.20;;;11.40;99.90;;;;;;4988898;28;20993;-76
2022/01/01 00:45:52;;;;;;;22.63;12.60;;;11.60;99.90;;;;;;4988983;28;20213;-73
2022/01/01 00:48:19;;;;;;;20.10;11.87;;;11.60;99.90;;;;;;4991515;28;20222;-77
2022/01/01 00:50:46;;;;;;;22.53;11.77;;;11.60;99.90;;;;;;4995459;28;20203;-79
2022/01/01 00:53:12;;;;;;;21.90;11.70;;;11.60;99.90;;;;;;4998126;28;20197;-77
2022/01/01 00:55:39;;;;;;;22.00;11.77;;;11.60;99.90;;;;;;4994423;28;20220;-80
2022/01/01 00:58:05;;;;;;;19.90;11.77;;;11.60;99.90;;;;;;4992510;28;20210;-78
2022/01/01 01:00:32;;;;;;;21.20;11.80;;;11.70;99.90;;;;;;4989352;28;20209;-79
2022/01/01 01:02:59;;;;;;;20.40;11.60;;;11.70;99.90;;;;;;4997545;28;20233;-79
2022/01/01 01:05:26;;;;;;;20.63;12.00;;;11.70;99.90;;;;;;4989199;28;20296;-78
2022/01/01 01:07:52;;;;;;;18.30;11.20;;;11.70;99.90;;;;;;5001343;28;20228;-76
2022/01/01 01:10:19;;;;;;;20.60;11.20;;;11.80;99.90;;;;;;4977177;28;20760;-75
2022/01/01 01:12:48;;;;;;;20.37;11.90;;;11.80;99.90;;;;;;4982721;28;20209;-78
2022/01/01 01:15:18;;;;;;;21.00;11.27;;;11.90;99.90;;;;;;4987707;28;20226;-75
2022/01/01 01:17:47;;;;;;;20.33;11.23;;;11.90;99.90;;;;;;4980671;28;20207;-78
2022/01/01 01:20:14;;;;;;;20.50;10.80;;;11.90;99.90;;;;;;4983110;28;20218;-78
2022/01/01 01:22:41;;;;;;;18.07;10.43;;;11.90;99.90;;;;;;4986546;28;22020;-77
2022/01/01 01:25:08;;;;;;;20.27;10.90;;;11.90;99.90;;;;;;4983430;28;20223;-80
2022/01/01 01:27:36;;;;;;;19.20;11.03;;;11.90;99.90;;;;;;4984920;28;20219;-79
2022/01/01 01:30:09;;;;;;;18.10;10.47;;;11.90;99.90;;;;;;4988704;28;20205;-78
2022/01/01 01:32:37;;;;;;;17.63;9.40;;;11.90;99.90;;;;;;4989573;28;20223;-80
2022/01/01 01:35:05;;;;;;;19.03;11.13;;;11.80;99.90;;;;;;4981330;28;20224;-78
2022/01/01 01:37:32;;;;;;;17.57;10.47;;;11.80;99.90;;;;;;4990138;28;20232;-73
2022/01/01 01:39:59;;;;;;;18.30;11.07;;;11.70;99.90;;;;;;4977836;28;20260;-74
2022/01/01 01:42:28;;;;;;;17.20;9.90;;;11.80;99.90;;;;;;4974217;28;20214;-72
2022/01/01 01:44:55;;;;;;;18.90;9.03;;;12.00;99.90;;;;;;4986092;28;20264;-74
2022/01/01 01:47:32;;;;;;;16.47;9.53;;;12.00;99.90;;;;;;4988082;28;20211;-77
2022/01/01 01:50:00;;;;;;;14.97;8.93;;;12.10;99.90;;;;;;4986553;28;20202;-77
2022/01/01 01:52:34;;;;;;;16.07;8.87;;;12.00;99.90;;;;;;4981751;28;20196;-73
2022/01/01 01:55:09;;;;;;;16.10;8.50;;;12.00;99.90;;;;;;4988852;28;20694;-70
2022/01/01 01:57:42;;;;;;;12.67;7.83;;;12.20;99.90;;;;;;4988196;28;20204;-78
2022/01/01 02:01:00;;;;;;;12.43;8.03;;;12.10;99.90;;;;;;4987582;28;20207;-79
2022/01/01 02:03:09;;;;;;;12.43;8.03;;;12.00;99.90;;;;;;4986605;28;20411;-78
2022/01/01 02:05:37;;;;;;;13.13;8.27;;;12.00;99.90;;;;;;4985838;28;20711;-80
2022/01/01 02:08:05;;;;;;;11.40;7.50;;;12.00;99.90;;;;;;4987879;28;20212;-81
2022/01/01 02:10:33;;;;;;;13.33;7.43;;;11.90;99.90;;;;;;4977334;28;20207;-72
2022/01/01 02:13:09;;;;;;;12.57;7.80;;;11.90;99.90;;;;;;4986899;28;20198;-74
2022/01/01 02:15:47;;;;;;;13.50;7.87;;;12.00;99.90;;;;;;4987753;28;20725;-76
2022/01/01 02:18:14;;;;;;;13.30;8.33;;;12.00;99.90;;;;;;4986004;28;20207;-75
2022/01/01 02:20:40;;;;;;;14.37;8.43;;;12.10;99.90;;;;;;4991648;28;20204;-75
2022/01/01 02:23:11;;;;;;;16.43;8.40;;;12.10;99.90;;;;;;4990731;28;20738;-71
2022/01/01 02:25:38;;;;;;;12.10;7.40;;;12.10;99.90;;;;;;4990811;28;20276;-73
2022/01/01 02:28:05;;;;;;;10.17;7.00;;;12.00;99.90;;;;;;4985221;28;20226;-78
2022/01/01 02:30:32;;;;;;;10.80;7.17;;;11.90;99.90;;;;;;4990513;28;20275;-76
2022/01/01 02:32:58;;;;;;;10.63;7.03;;;12.00;99.90;;;;;;4991869;28;20192;-74
2022/01/01 02:35:25;;;;;;;12.03;6.70;;;11.90;99.90;;;;;;4992312;28;20235;-74
2022/01/01 02:37:52;;;;;;;10.53;7.00;;;11.90;99.90;;;;;;4987532;28;20211;-79
2022/01/01 02:40:18;;;;;;;10.83;6.80;;;11.90;99.90;;;;;;4980127;28;20207;-79
2022/01/01 02:42:45;;;;;;;13.83;7.57;;;11.90;99.90;;;;;;4990822;28;20205;-71
2022/01/01 02:45:14;;;;;;;18.00;7.33;;;11.90;99.90;;;;;;4992419;28;20259;-75
2022/01/01 02:47:42;;;;;;;10.07;6.67;;;12.00;99.90;;;;;;4986274;28;20247;-75
2022/01/01 02:50:09;;;;;;;12.00;6.60;;;11.80;99.90;;;;;;4987129;28;20215;-77
2022/01/01 02:52:36;;;;;;;12.57;6.70;;;11.70;99.90;;;;;;4984684;28;20191;-76
2022/01/01 02:55:05;;;;;;;9.40;6.40;;;11.60;99.90;;;;;;4991349;28;20229;-75
2022/01/01 02:57:31;;;;;;;13.40;6.87;;;11.40;99.90;;;;;;4993328;28;20207;-74
2022/01/01 02:59:58;;;;;;;10.93;6.50;;;11.30;99.90;;;;;;4990173;28;20202;-74
2022/01/01 03:02:25;;;;;;;10.47;6.37;;;11.20;99.90;;;;;;4986508;28;20199;-78
2022/01/01 03:04:52;;;;;;;9.67;6.27;;;11.10;99.90;;;;;;4985933;28;20214;-72
2022/01/01 03:07:19;;;;;;;9.83;5.70;;;11.00;99.90;;;;;;4986663;28;20218;-75
2022/01/01 03:09:46;;;;;;;7.70;5.47;;;11.00;99.90;;;;;;4986785;28;20331;-73
2022/01/01 03:12:14;;;;;;;7.57;4.97;;;11.00;99.90;;;;;;4987480;28;20200;-70
2022/01/01 03:14:41;;;;;;;9.07;5.47;;;11.10;99.90;;;;;;4983859;28;20219;-73
2022/01/01 03:17:08;;;;;;;8.57;5.67;;;11.10;99.90;;;;;;4989001;28;20609;-72
2022/01/01 03:19:35;;;;;;;7.80;5.37;;;11.10;99.90;;;;;;4983525;28;20203;-70
2022/01/01 03:22:03;;;;;;;9.37;5.87;;;11.20;99.90;;;;;;4981074;28;20222;-69
2022/01/01 03:24:30;;;;;;;10.97;6.03;;;11.20;99.90;;;;;;4988214;28;20719;-73
2022/01/01 03:26:57;;;;;;;9.67;6.10;;;11.20;99.90;;;;;;4988616;28;21144;-77
2022/01/01 03:29:24;;;;;;;12.83;6.23;;;11.20;99.90;;;;;;4984250;28;20729;-71
2022/01/01 03:31:50;;;;;;;10.03;6.00;;;11.30;99.90;;;;;;4984852;28;20196;-72
2022/01/01 03:34:17;;;;;;;8.50;5.37;;;11.30;99.90;;;;;;4987582;28;20287;-71
2022/01/01 03:36:44;;;;;;;11.90;6.10;;;11.30;99.90;;;;;;4984114;28;20209;-71
2022/01/01 03:39:11;;;;;;;9.77;5.83;;;11.40;99.90;;;;;;4984938;28;20210;-75
2022/01/01 03:41:37;;;;;;;11.77;6.20;;;11.50;99.90;;;;;;4988336;28;20193;-79
2022/01/01 03:44:04;;;;;;;9.83;6.23;;;11.60;99.90;;;;;;4981978;28;20223;-74
2022/01/01 03:46:31;;;;;;;10.83;5.83;;;11.60;99.90;;;;;;4989903;28;20206;-76
2022/01/01 03:48:58;;;;;;;11.23;6.90;;;11.70;99.90;;;;;;4987594;28;20223;-76
2022/01/01 03:51:24;;;;;;;10.10;6.23;;;11.80;99.90;;;;;;4984147;28;20200;-76
2022/01/01 03:53:51;;;;;;;9.67;6.00;;;11.80;99.90;;;;;;4985309;28;20788;-78
2022/01/01 03:56:18;;;;;;;10.50;6.37;;;11.80;99.90;;;;;;4973925;28;20193;-79
2022/01/01 03:58:44;;;;;;;10.13;5.53;;;11.90;99.90;;;;;;4987443;28;20200;-78
2022/01/01 04:01:11;;;;;;;7.73;5.53;;;11.90;99.90;;;;;;4989649;28;20240;-78
2022/01/01 04:03:38;;;;;;;9.50;5.97;;;12.00;99.90;;;;;;4981058;28;20587;-80
2022/01/01 04:06:05;;;;;;;8.03;5.20;;;12.00;99.90;;;;;;4987243;28;20666;-79
2022/01/01 04:08:32;;;;;;;7.93;5.27;;;12.00;99.90;;;;;;4984637;28;20224;-79
2022/01/01 04:10:58;;;;;;;10.33;6.17;;;11.90;99.90;;;;;;4980515;28;20196;-78
2022/01/01 04:13:25;;;;;;;9.03;5.63;;;11.90;99.90;;;;;;4989093;28;20189;-80
2022/01/01 04:15:52;;;;;;;9.87;5.97;;;11.90;99.90;;;;;;4989384;28;20200;-80
2022/01/01 04:18:28;;;;;;;10.27;5.57;;;11.90;99.90;;;;;;4988466;28;20199;-81
2022/01/01 04:20:54;;;;;;;9.90;6.17;;;11.90;99.90;;;;;;4989609;28;20195;-80
2022/01/01 04:23:23;;;;;;;9.07;5.43;;;11.90;99.90;;;;;;4989761;28;20463;-80
2022/01/01 04:25:50;;;;;;;8.67;5.43;;;12.00;99.90;;;;;;4986786;28;20621;-77
2022/01/01 04:28:17;;;;;;;10.57;5.23;;;12.00;99.90;;;;;;4988095;28;20698;-78
2022/01/01 04:30:43;;;;;;;9.60;5.93;;;12.00;99.90;;;;;;4989663;28;20246;-76
2022/01/01 04:33:10;;;;;;;8.90;5.37;;;12.10;99.90;;;;;;4989994;28;20196;-78
2022/01/01 04:35:37;;;;;;;11.70;6.03;;;12.10;99.90;;;;;;4987582;28;20216;-79
2022/01/01 04:38:05;;;;;;;10.40;5.60;;;12.20;99.90;;;;;;4983102;28;20611;-78
2022/01/01 04:40:32;;;;;;;9.57;6.23;;;12.30;99.90;;;;;;4985774;28;20268;-81
2022/01/01 04:42:59;;;;;;;12.10;6.13;;;12.20;99.90;;;;;;4985881;28;20255;-78
2022/01/01 04:45:25;;;;;;;8.43;5.77;;;12.10;99.90;;;;;;4987576;28;20219;-76
2022/01/01 04:47:52;;;;;;;12.13;6.63;;;12.10;99.90;;;;;;4989074;28;20220;-76
2022/01/01 04:50:19;;;;;;;9.40;6.00;;;12.20;99.90;;;;;;4986138;28;20604;-79
2022/01/01 04:52:46;;;;;;;10.30;6.63;;;12.10;99.90;;;;;;4989215;28;20206;-78
2022/01/01 04:55:12;;;;;;;9.93;5.90;;;12.20;99.90;;;;;;4983808;28;20219;-81
2022/01/01 04:57:39;;;;;;;10.33;6.47;;;12.10;99.90;;;;;;4984056;28;20199;-78
2022/01/01 05:00:06;;;;;;;11.80;6.40;;;12.20;99.90;;;;;;4980620;28;20208;-78
2022/01/01 05:02:33;;;;;;;11.83;6.40;;;12.20;99.90;;;;;;5000520;28;20211;-78
2022/01/01 05:05:00;;;;;;;9.97;5.80;;;12.20;99.90;;;;;;4990121;28;20218;-78
2022/01/01 05:07:26;;;;;;;10.57;6.70;;;12.20;99.90;;;;;;4987289;28;20429;-78
2022/01/01 05:09:53;;;;;;;9.90;6.10;;;12.20;99.90;;;;;;4982259;28;20212;-79
2022/01/01 05:12:20;;;;;;;10.87;5.97;;;12.30;99.90;;;;;;4987651;28;20751;-76
2022/01/01 05:14:46;;;;;;;9.80;5.67;;;12.30;99.90;;;;;;4977421;28;20224;-72
2022/01/01 05:17:14;;;;;;;11.67;6.67;;;12.30;99.90;;;;;;4981288;28;20532;-78
2022/01/01 05:19:41;;;;;;;13.40;7.23;;;12.10;99.90;;;;;;4978206;28;20208;-71
2022/01/01 05:22:08;;;;;;;10.27;6.10;;;12.00;99.90;;;;;;4986574;28;20209;-73
2022/01/01 05:24:34;;;;;;;9.13;6.40;;;12.00;99.90;;;;;;4975591;28;20286;-73
2022/01/01 05:27:02;;;;;;;10.07;6.30;;;12.10;99.90;;;;;;4987399;28;20678;-73
2022/01/01 05:29:29;;;;;;;13.80;6.60;;;12.10;99.90;;;;;;4978844;28;20229;-74
2022/01/01 05:31:55;;;;;;;10.03;6.60;;;12.00;99.90;;;;;;4975078;28;20203;-76
2022/01/01 05:34:22;;;;;;;10.63;6.70;;;12.10;99.90;;;;;;4988522;28;20220;-80
2022/01/01 05:36:49;;;;;;;15.27;8.37;;;12.00;99.90;;;;;;4988769;28;20197;-75
2022/01/01 05:39:16;;;;;;;14.73;7.93;;;11.90;99.90;;;;;;4983631;28;20194;-72
2022/01/01 05:41:42;;;;;;;14.83;7.70;;;11.90;99.90;;;;;;4983999;28;20213;-74
2022/01/01 05:44:09;;;;;;;14.60;7.67;;;11.80;99.90;;;;;;4986575;28;20225;-72
2022/01/01 05:46:36;;;;;;;14.57;7.83;;;11.70;99.90;;;;;;4987055;28;20667;-72
2022/01/01 05:49:03;;;;;;;16.60;8.83;;;11.60;99.90;;;;;;4979849;28;20227;-72
2022/01/01 05:51:29;;;;;;;15.23;9.03;;;11.70;99.90;;;;;;4987033;28;20197;-73
2022/01/01 05:53:56;;;;;;;13.77;8.33;;;11.70;99.90;;;;;;4987560;28;20629;-72
2022/01/01 05:56:22;;;;;;;14.40;8.77;;;11.70;99.90;;;;;;4988284;28;20195;-73
2022/01/01 05:58:49;;;;;;;15.37;8.50;;;11.70;99.90;;;;;;4986685;28;20256;-73
2022/01/01 06:01:16;;;;;;;17.47;9.27;;;11.60;99.90;;;;;;4984330;28;20251;-74
2022/01/01 06:03:42;;;;;;;14.23;8.37;;;11.70;99.90;;;;;;4986807;28;20204;-74
2022/01/01 06:06:09;;;;;;;14.97;8.77;;;11.60;99.90;;;;;;4981571;28;20208;-73
2022/01/01 06:08:56;;;;;;;17.47;9.73;;;11.60;99.90;;;;;;4981500;28;20224;-70
2022/01/01 06:11:22;;;;;;;18.40;10.07;;;11.60;99.90;;;;;;4988498;28;20249;-74
2022/01/01 06:13:49;;;;;;;17.27;9.80;;;11.70;99.90;;;;;;4984237;28;20215;-73
2022/01/01 06:16:16;;;;;;;21.40;10.37;;;11.60;99.90;;;;;;4980420;28;20196;-70
2022/01/01 06:18:42;;;;;;;16.37;9.20;;;11.40;99.90;;;;;;4983567;28;20200;-70
2022/01/01 06:21:09;;;;;;;15.90;9.30;;;11.30;99.90;;;;;;4986006;28;20623;-72
2022/01/01 06:23:37;;;;;;;15.73;9.10;;;11.20;99.90;;;;;;4983494;28;20201;-70
2022/01/01 06:26:04;;;;;;;15.97;8.57;;;11.10;99.90;;;;;;4987803;28;20201;-70
2022/01/01 06:28:31;;;;;;;21.07;9.67;;;11.00;99.90;;;;;;4986836;28;20337;-68
2022/01/01 06:30:58;;;;;;;17.93;9.33;;;11.00;99.90;;;;;;4985154;28;20632;-70
2022/01/01 06:33:25;;;;;;;19.43;10.47;;;10.90;99.90;;;;;;4975459;28;20289;-71
2022/01/01 06:35:53;;;;;;;19.57;10.13;;;10.90;99.90;;;;;;4981750;28;20200;-70
2022/01/01 06:38:20;;;;;;;20.00;9.80;;;10.70;99.90;;;;;;4982687;28;20207;-70
2022/01/01 06:40:47;;;;;;;20.73;10.97;;;10.60;99.90;;;;;;4977523;28;20206;-70
2022/01/01 06:43:15;;;;;;;22.53;11.27;;;10.50;99.90;;;;;;4991760;28;20200;-70
2022/01/01 06:45:43;;;;;;;21.60;12.13;;;10.80;99.90;;;;;;4987194;28;20235;-70
2022/01/01 06:48:10;;;;;;;23.77;10.87;;;10.90;99.90;;;;;;4987664;28;20251;-70
2022/01/01 06:50:37;;;;;;;22.97;11.73;;;10.70;99.90;;;;;;4985910;28;20196;-71
2022/01/01 06:53:08;;;;;;;23.93;11.37;;;10.60;99.90;;;;;;4986011;28;20207;-70
2022/01/01 06:55:34;;;;;;;22.60;11.73;;;10.60;99.90;;;;;;4981407;28;20227;-70
2022/01/01 06:58:01;;;;;;;24.63;11.80;;;10.70;99.90;;;;;;4991107;28;20250;-70
2022/01/01 07:00:28;;;;;;;26.20;12.43;;;10.70;99.90;;;;;;4988281;28;20556;-72
2022/01/01 07:02:54;;;;;;;31.97;14.07;;;10.90;99.90;;;;;;4990194;28;20199;-72
2022/01/01 07:05:21;;;;;;;24.03;12.97;;;10.90;99.90;;;;;;4985259;28;20279;-70
2022/01/01 07:07:48;;;;;;;28.53;12.93;;;11.10;99.90;;;;;;4983130;28;20211;-70
2022/01/01 07:10:14;;;;;;;28.63;13.87;;;11.00;99.90;;;;;;4986382;28;20203;-70
2022/01/01 07:12:42;;;;;;;30.23;12.93;;;11.00;99.90;;;;;;4990010;28;20203;-71
2022/01/01 07:15:09;;;;;;;22.20;11.60;;;10.90;99.90;;;;;;4982437;28;20223;-72
2022/01/01 07:17:37;;;;;;;27.10;13.27;;;10.90;99.90;;;;;;4988259;28;20204;-70
2022/01/01 07:20:05;;;;;;;24.87;13.20;;;10.90;99.90;;;;;;4989876;28;20196;-70
2022/01/01 07:22:31;;;;;;;24.53;12.63;;;10.80;99.90;;;;;;4991522;28;20196;-71
2022/01/01 07:25:03;;;;;;;24.83;12.40;;;10.80;99.90;;;;;;4988788;28;20221;-71
2022/01/01 07:27:29;;;;;;;22.03;11.27;;;10.80;99.90;;;;;;4990469;28;20200;-72
2022/01/01 07:29:56;;;;;;;19.00;11.00;;;10.90;99.90;;;;;;4990380;28;20247;-71
2022/01/01 07:32:24;;;;;;;22.90;11.53;;;10.90;99.90;;;;;;4990491;28;20193;-70
2022/01/01 07:34:51;;;;;;;20.13;11.73;;;10.90;99.90;;;;;;4988218;28;20640;-70
2022/01/01 07:37:17;;;;;;;26.00;12.87;;;11.00;99.90;;;;;;4981312;28;20197;-71
2022/01/01 07:39:44;;;;;;;22.80;11.93;;;11.10;99.90;;;;;;4981279;28;20232;-72
2022/01/01 07:42:12;;;;;;;23.00;12.27;;;11.10;99.90;;;;;;4981609;28;20623;-70
2022/01/01 07:44:40;;;;;;;25.73;12.47;;;11.10;99.90;;;;;;4983619;28;20231;-71
2022/01/01 07:47:07;;;;;;;24.60;12.60;;;11.10;99.90;;;;;;4979049;28;20670;-73
2022/01/01 07:49:34;;;;;;;24.57;12.33;;;11.10;99.90;;;;;;4987903;28;20217;-72
2022/01/01 07:52:02;;;;;;;28.43;12.57;;;11.10;99.90;;;;;;4984770;28;20692;-71
2022/01/01 07:54:28;;;;;;;20.43;12.17;;;11.20;99.90;;;;;;4990424;28;20228;-71
2022/01/01 07:56:56;;;;;;;25.07;13.27;;;11.20;99.90;;;;;;4990792;28;20771;-70
2022/01/01 07:59:22;;;;;;;24.17;12.60;;;11.30;99.90;;;;;;4981154;28;20199;-71
2022/01/01 08:01:49;;;;;;;21.40;11.80;;;11.30;99.90;;;;;;4985539;28;20204;-70
2022/01/01 08:04:16;;;;;;;22.83;12.43;;;11.30;99.90;;;;;;4984627;28;20278;-72
2022/01/01 08:06:43;;;;;;;21.80;12.13;;;11.30;99.90;;;;;;4983370;28;20209;-71
2022/01/01 08:09:09;;;;;;;21.30;11.90;;;11.40;99.90;;;;;;4988794;28;20226;-68
2022/01/01 08:11:36;;;;;;;23.63;12.70;;;11.40;99.90;;;;;;4986500;28;20201;-70
2022/01/01 08:14:03;;;;;;;23.43;12.13;;;11.50;99.90;;;;;;4981817;28;20217;-72
2022/01/01 08:16:29;;;;;;;24.43;11.60;;;11.70;99.90;;;;;;4988983;28;20225;-73
2022/01/01 08:18:56;;;;;;;25.53;12.90;;;11.70;99.90;;;;;;4981215;28;20202;-72
2022/01/01 08:21:23;;;;;;;20.83;11.20;;;11.70;99.90;;;;;;4988164;28;20197;-73
2022/01/01 08:23:49;;;;;;;21.03;11.67;;;11.70;99.90;;;;;;4984179;28;20219;-73
2022/01/01 08:26:16;;;;;;;21.83;11.07;;;11.70;99.90;;;;;;4988519;28;20549;-73
2022/01/01 08:28:43;;;;;;;24.57;11.97;;;11.70;99.90;;;;;;4985488;28;20299;-71
2022/01/01 08:31:09;;;;;;;22.53;11.77;;;11.70;99.90;;;;;;4978527;28;20264;-72
2022/01/01 08:33:36;;;;;;;22.07;12.47;;;11.80;99.90;;;;;;4987818;28;20195;-73
2022/01/01 08:36:03;;;;;;;21.80;11.80;;;11.80;99.90;;;;;;4989878;28;20245;-72
2022/01/01 08:38:31;;;;;;;19.80;11.73;;;11.80;99.90;;;;;;4987626;28;20222;-74
2022/01/01 08:40:59;;;;;;;23.67;11.23;;;11.80;99.90;;;;;;4978226;28;20286;-72
2022/01/01 08:43:26;;;;;;;21.07;11.63;;;11.80;99.90;;;;;;4983662;28;20247;-74
2022/01/01 08:45:53;;;;;;;22.83;11.73;;;11.90;99.90;;;;;;4990731;28;20194;-74
2022/01/01 08:48:20;;;;;;;21.97;11.60;;;12.00;99.90;;;;;;4981429;28;20673;-78
2022/01/01 08:50:47;;;;;;;20.90;11.50;;;12.10;99.90;;;;;;4980573;28;20198;-73
2022/01/01 08:53:14;;;;;;;24.60;11.63;;;12.10;99.90;;;;;;4984876;28;20209;-78
2022/01/01 08:55:40;;;;;;;22.30;11.70;;;12.30;99.90;;;;;;4985536;28;20216;-80
2022/01/01 08:58:07;;;;;;;19.47;11.10;;;12.40;99.90;;;;;;4987780;28;20194;-78
2022/01/01 09:00:52;;;;;;;17.70;10.07;;;12.40;99.90;;;;;;4989325;28;20249;-80
2022/01/01 09:03:19;;;;;;;23.50;12.00;;;12.40;99.90;;;;;;4987477;28;20261;-78
2022/01/01 09:05:46;;;;;;;22.07;11.47;;;12.40;99.90;;;;;;4998068;28;20222;-79
2022/01/01 09:08:39;;;;;;;21.67;11.60;;;12.60;99.90;;;;;;5007454;28;20201;-78
2022/01/01 09:11:06;;;;;;;20.47;11.27;;;12.70;99.90;;;;;;4991222;28;20203;-78
2022/01/01 09:13:33;;;;;;;21.07;10.90;;;12.80;99.90;;;;;;4991340;28;20204;-79
2022/01/01 09:16:00;;;;;;;20.40;10.87;;;12.70;99.90;;;;;;4994955;28;20199;-78
2022/01/01 09:18:27;;;;;;;21.40;11.60;;;12.70;99.90;;;;;;4983774;28;20259;-78
2022/01/01 09:20:53;;;;;;;18.37;10.60;;;12.70;99.90;;;;;;4983831;28;20255;-78
2022/01/01 09:23:25;;;;;;;22.07;12.00;;;12.70;99.90;;;;;;4981553;28;20198;-80
2022/01/01 09:25:51;;;;;;;22.27;11.10;;;12.70;99.90;;;;;;4981674;28;20200;-80
2022/01/01 09:28:18;;;;;;;19.53;11.13;;;12.80;99.90;;;;;;4987342;28;20244;-79
2022/01/01 09:30:45;;;;;;;20.07;11.07;;;12.80;99.90;;;;;;4986271;28;20225;-78
2022/01/01 09:33:12;;;;;;;19.93;10.90;;;12.90;99.90;;;;;;4987688;28;20243;-76
2022/01/01 09:35:39;;;;;;;21.73;11.53;;;13.00;99.90;;;;;;4990217;28;20221;-75
2022/01/01 09:38:06;;;;;;;21.77;11.37;;;13.10;99.90;;;;;;4994118;28;20199;-76
2022/01/01 09:40:33;;;;;;;17.93;10.63;;;13.00;99.90;;;;;;4980814;28;20247;-72
2022/01/01 09:43:02;;;;;;;22.33;11.47;;;13.10;99.90;;;;;;4987048;28;20220;-72
2022/01/01 09:45:29;;;;;;;20.80;10.33;;;13.10;99.90;;;;;;4981151;28;20660;-72
2022/01/01 09:47:56;;;;;;;18.77;10.93;;;13.20;99.90;;;;;;4979974;28;20201;-74
2022/01/01 09:50:23;;;;;;;19.33;10.83;;;13.20;99.90;;;;;;4980367;28;20228;-75
2022/01/01 09:52:49;;;;;;;20.37;10.57;;;13.10;99.90;;;;;;4986611;28;20288;-74
2022/01/01 09:55:16;;;;;;;18.10;9.90;;;13.10;99.90;;;;;;4990577;28;20599;-72
2022/01/01 09:57:43;;;;;;;18.97;10.33;;;13.20;99.90;;;;;;4982991;28;20201;-72
2022/01/01 10:00:10;;;;;;;16.70;9.63;;;13.30;99.90;;;;;;4984109;28;20208;-71
2022/01/01 10:02:37;;;;;;;17.73;9.93;;;13.30;99.90;;;;;;4999720;28;20207;-71
2022/01/01 10:05:05;;;;;;;21.00;10.63;;;13.40;99.90;;;;;;4988618;28;20717;-72
2022/01/01 10:07:32;;;;;;;22.07;10.67;;;13.50;99.90;;;;;;4991061;28;20259;-73
2022/01/01 10:10:25;;;;;;;15.07;9.10;;;13.60;99.90;;;;;;4986156;28;20719;-72
2022/01/01 10:12:52;;;;;;;18.90;10.20;;;13.60;99.90;;;;;;4984459;28;20197;-72
2022/01/01 10:15:19;;;;;;;16.67;9.63;;;13.70;99.90;;;;;;4988945;28;20224;-74
2022/01/01 10:17:46;;;;;;;16.93;9.60;;;13.70;99.90;;;;;;4988744;28;20201;-71
2022/01/01 10:20:13;;;;;;;16.87;9.70;;;13.80;99.90;;;;;;4989202;28;20243;-72
2022/01/01 10:22:42;;;;;;;17.53;10.03;;;13.70;99.90;;;;;;4990783;28;20197;-71
2022/01/01 10:28:02;;;;;;;18.73;10.33;;;13.90;99.90;;;;;;4984734;28;20846;-74
2022/01/01 10:30:38;;;;;;;17.20;10.03;;;13.80;99.90;;;;;;4985264;28;20260;-74
2022/01/01 10:33:12;;;;;;;21.20;10.27;;;13.70;99.90;;;;;;4987638;28;20227;-75
2022/01/01 10:35:45;;;;;;;19.67;10.47;;;13.30;99.90;;;;;;4991554;28;20270;-74
2022/01/01 10:38:18;;;;;;;17.90;10.03;;;13.20;99.90;;;;;;4986304;28;20201;-73
2022/01/01 10:40:44;;;;;;;21.80;11.00;;;13.20;99.90;;;;;;4985359;28;20216;-74
2022/01/01 10:43:14;;;;;;;18.97;10.77;;;13.30;99.90;;;;;;4988840;28;20718;-73
2022/01/01 10:45:47;;;;;;;18.43;10.77;;;13.30;99.90;;;;;;4990819;28;20224;-72
2022/01/01 10:48:40;;;;;;;21.77;10.70;;;13.20;99.90;;;;;;4986405;28;20227;-73
2022/01/01 10:51:10;;;;;;;20.00;9.97;;;13.30;99.90;;;;;;4986292;28;20224;-75
2022/01/01 10:53:37;;;;;;;18.03;10.20;;;13.40;99.90;;;;;;4990626;28;20193;-72
2022/01/01 10:56:16;;;;;;;19.40;9.50;;;13.50;99.90;;;;;;4983189;28;20244;-74
2022/01/01 10:58:43;;;;;;;18.73;9.90;;;13.50;99.90;;;;;;4987212;28;20204;-72
2022/01/01 11:01:10;;;;;;;17.80;9.77;;;13.40;99.90;;;;;;4985915;28;20224;-74
2022/01/01 11:03:40;;;;;;;16.43;9.30;;;13.50;99.90;;;;;;4985910;28;20620;-71
2022/01/01 11:06:15;;;;;;;18.73;9.97;;;13.50;99.90;;;;;;4989833;28;20200;-73
2022/01/01 11:08:44;;;;;;;19.43;10.23;;;13.60;99.90;;;;;;4987354;28;20570;-71
2022/01/01 11:11:13;;;;;;;19.83;9.30;;;13.70;99.90;;;;;;4978022;28;20635;-74
2022/01/01 11:13:41;;;;;;;19.33;10.37;;;13.60;99.90;;;;;;4987602;28;20205;-72
2022/01/01 11:16:09;;;;;;;20.93;10.20;;;13.60;99.90;;;;;;4989448;28;20197;-74
2022/01/01 11:18:39;;;;;;;17.27;9.80;;;13.70;99.90;;;;;;4979856;28;20244;-71
2022/01/01 11:21:06;;;;;;;17.47;9.90;;;13.80;99.90;;;;;;4992616;28;20242;-72
2022/01/01 11:23:34;;;;;;;17.83;10.10;;;13.80;99.90;;;;;;4988599;28;20208;-72
2022/01/01 11:26:02;;;;;;;17.53;9.97;;;13.70;99.90;;;;;;4985772;28;20197;-72
2022/01/01 11:28:28;;;;;;;18.47;10.67;;;13.80;99.90;;;;;;4984177;28;20202;-73
2022/01/01 11:31:10;;;;;;;18.97;10.33;;;13.80;99.90;;;;;;4990244;28;20220;-71
2022/01/01 11:33:43;;;;;;;21.00;10.43;;;13.80;99.90;;;;;;4980897;28;20613;-73
2022/01/01 11:36:23;;;;;;;19.77;11.60;;;13.80;99.90;;;;;;4987481;28;20196;-72
2022/01/01 11:38:52;;;;;;;19.23;10.53;;;13.80;99.90;;;;;;4984313;28;20201;-71
2022/01/01 11:41:18;;;;;;;21.77;11.30;;;13.70;99.90;;;;;;4985159;28;20203;-73
2022/01/01 11:43:53;;;;;;;22.80;11.27;;;13.50;99.90;;;;;;4986644;28;20673;-71
2022/01/01 11:46:21;;;;;;;18.20;10.67;;;13.50;99.90;;;;;;4984654;28;20210;-71
2022/01/01 11:48:56;;;;;;;18.67;10.33;;;13.60;99.90;;;;;;4986962;28;20192;-73
2022/01/01 11:51:22;;;;;;;19.13;10.80;;;13.80;99.90;;;;;;4982227;28;20696;-71
2022/01/01 11:54:11;;;;;;;17.10;9.93;;;13.90;99.90;;;;;;4985775;28;20225;-71
2022/01/01 11:56:47;;;;;;;19.87;11.03;;;13.90;99.90;;;;;;4980580;28;20189;-72
2022/01/01 11:59:30;;;;;;;18.40;10.97;;;14.10;99.90;;;;;;4990095;28;20207;-72
2022/01/01 12:02:11;;;;;;;19.70;10.73;;;14.30;99.90;;;;;;4991378;28;20224;-73
2022/01/01 12:04:43;;;;;;;21.47;11.63;;;14.40;99.90;;;;;;4984975;28;20300;-72
2022/01/01 12:07:16;;;;;;;19.37;10.97;;;14.50;99.90;;;;;;4985811;28;20583;-71
2022/01/01 12:09:58;;;;;;;23.10;10.80;;;14.50;99.90;;;;;;4987475;28;20275;-71
2022/01/01 12:12:48;;;;;;;22.87;10.10;;;14.50;99.90;;;;;;4992477;28;20372;-71
2022/01/01 12:15:24;;;;;;;21.03;10.50;;;14.60;99.90;;;;;;4983551;28;20870;-72
2022/01/01 12:18:09;;;;;;;17.70;10.47;;;14.80;99.90;;;;;;4982385;28;20292;-72
2022/01/01 12:20:46;;;;;;;17.87;9.70;;;14.80;99.90;;;;;;4990408;28;20197;-74
2022/01/01 12:23:15;;;;;;;22.60;11.07;;;14.60;99.90;;;;;;4983451;28;20627;-70
2022/01/01 12:25:45;;;;;;;21.80;11.37;;;14.10;99.90;;;;;;4987626;28;20634;-73
2022/01/01 12:28:15;;;;;;;21.80;11.17;;;14.40;99.90;;;;;;4985772;28;20505;-72
2022/01/01 12:30:51;;;;;;;19.80;10.93;;;14.40;99.90;;;;;;4982568;28;20212;-72
2022/01/01 12:33:38;;;;;;;19.90;10.83;;;14.30;99.90;;;;;;4981633;28;20212;-73
2022/01/01 12:36:09;;;;;;;19.83;11.10;;;14.20;99.90;;;;;;4982951;28;20189;-72
2022/01/01 12:38:40;;;;;;;20.40;11.07;;;14.10;99.90;;;;;;4986268;28;20200;-73
2022/01/01 12:41:07;;;;;;;19.57;11.37;;;14.20;99.90;;;;;;4987831;28;20220;-73
2022/01/01 12:43:48;;;;;;;19.67;10.57;;;14.20;99.90;;;;;;4982884;28;20193;-72